sensor_id;sensor_type;location;lat;lon;timestamp;P1;durP1;ratioP1;P2;durP2;ratioP2
14251;SDS011;7210;51.502;10.722;2023-07-30T00:01:35;4.13;;;3.83;;
14251;SDS011;7210;51.502;10.722;2023-07-30T00:04:03;3.87;;;3.53;;
14251;SDS011;7210;51.502;10.722;2023-07-30T00:06:32;3.97;;;3.67;;
14251;SDS011;7210;51.502;10.722;2023-07-30T00:08:59;3.93;;;3.63;;
14251;SDS011;7210;51.502;10.722;2023-07-30T00:11:28;4.43;;;4.10;;
14251;SDS011;7210;51.502;10.722;2023-07-30T00:13:56;5.33;;;3.50;;
14251;SDS011;7210;51.502;10.722;2023-07-30T00:16:25;4.30;;;3.40;;
14251;SDS011;7210;51.502;10.722;2023-07-30T00:18:52;3.87;;;3.57;;
14251;SDS011;7210;51.502;10.722;2023-07-30T00:21:20;4.13;;;3.83;;
14251;SDS011;7210;51.502;10.722;2023-07-30T00:23:48;4.83;;;4.13;;
14251;SDS011;7210;51.502;10.722;2023-07-30T00:26:15;4.33;;;3.63;;
14251;SDS011;7210;51.502;10.722;2023-07-30T00:28:43;4.40;;;3.83;;
14251;SDS011;7210;51.502;10.722;2023-07-30T00:31:10;4.10;;;3.70;;
14251;SDS011;7210;51.502;10.722;2023-07-30T00:33:38;4.67;;;3.50;;
14251;SDS011;7210;51.502;10.722;2023-07-30T00:36:05;4.07;;;3.70;;
14251;SDS011;7210;51.502;10.722;2023-07-30T00:38:32;4.27;;;3.93;;
14251;SDS011;7210;51.502;10.722;2023-07-30T00:41:01;5.27;;;3.90;;
14251;SDS011;7210;51.502;10.722;2023-07-30T00:43:28;4.57;;;4.17;;
14251;SDS011;7210;51.502;10.722;2023-07-30T00:45:58;4.40;;;4.00;;
14251;SDS011;7210;51.502;10.722;2023-07-30T00:48:26;5.50;;;4.40;;
14251;SDS011;7210;51.502;10.722;2023-07-30T00:50:53;4.40;;;4.00;;
14251;SDS011;7210;51.502;10.722;2023-07-30T00:53:22;4.67;;;4.27;;
14251;SDS011;7210;51.502;10.722;2023-07-30T00:55:52;4.67;;;3.80;;
14251;SDS011;7210;51.502;10.722;2023-07-30T00:58:21;4.50;;;4.03;;
14251;SDS011;7210;51.502;10.722;2023-07-30T01:00:50;4.70;;;4.20;;
14251;SDS011;7210;51.502;10.722;2023-07-30T01:03:23;4.20;;;3.80;;
14251;SDS011;7210;51.502;10.722;2023-07-30T01:05:51;4.30;;;4.00;;
14251;SDS011;7210;51.502;10.722;2023-07-30T01:08:19;4.33;;;3.93;;
14251;SDS011;7210;51.502;10.722;2023-07-30T01:10:46;4.40;;;4.00;;
14251;SDS011;7210;51.502;10.722;2023-07-30T01:13:16;3.80;;;3.50;;
14251;SDS011;7210;51.502;10.722;2023-07-30T01:15:46;3.90;;;3.60;;
14251;SDS011;7210;51.502;10.722;2023-07-30T01:18:15;4.00;;;3.70;;
14251;SDS011;7210;51.502;10.722;2023-07-30T01:20:42;4.50;;;4.10;;
14251;SDS011;7210;51.502;10.722;2023-07-30T01:23:11;5.00;;;4.20;;
14251;SDS011;7210;51.502;10.722;2023-07-30T01:25:38;4.23;;;3.83;;
14251;SDS011;7210;51.502;10.722;2023-07-30T01:28:08;4.17;;;3.77;;
14251;SDS011;7210;51.502;10.722;2023-07-30T01:30:44;4.03;;;3.63;;
14251;SDS011;7210;51.502;10.722;2023-07-30T01:33:13;4.90;;;3.97;;
14251;SDS011;7210;51.502;10.722;2023-07-30T01:35:41;3.97;;;3.63;;
14251;SDS011;7210;51.502;10.722;2023-07-30T01:38:11;3.90;;;3.60;;
14251;SDS011;7210;51.502;10.722;2023-07-30T01:40:40;3.80;;;3.50;;
14251;SDS011;7210;51.502;10.722;2023-07-30T01:43:08;4.30;;;3.97;;
14251;SDS011;7210;51.502;10.722;2023-07-30T01:45:36;4.10;;;3.80;;
14251;SDS011;7210;51.502;10.722;2023-07-30T01:48:04;3.87;;;3.40;;
14251;SDS011;7210;51.502;10.722;2023-07-30T01:50:31;3.70;;;3.40;;
14251;SDS011;7210;51.502;10.722;2023-07-30T01:53:04;4.07;;;3.70;;
14251;SDS011;7210;51.502;10.722;2023-07-30T01:55:33;3.70;;;3.40;;
14251;SDS011;7210;51.502;10.722;2023-07-30T01:58:00;3.80;;;3.40;;
14251;SDS011;7210;51.502;10.722;2023-07-30T02:00:28;3.70;;;3.43;;
14251;SDS011;7210;51.502;10.722;2023-07-30T02:03:02;3.53;;;3.23;;
14251;SDS011;7210;51.502;10.722;2023-07-30T02:05:30;3.90;;;3.60;;
14251;SDS011;7210;51.502;10.722;2023-07-30T02:07:57;4.40;;;3.93;;
14251;SDS011;7210;51.502;10.722;2023-07-30T02:10:26;4.20;;;3.80;;
14251;SDS011;7210;51.502;10.722;2023-07-30T02:12:56;4.17;;;3.77;;
14251;SDS011;7210;51.502;10.722;2023-07-30T02:15:24;4.73;;;4.30;;
14251;SDS011;7210;51.502;10.722;2023-07-30T02:17:51;4.67;;;4.23;;
14251;SDS011;7210;51.502;10.722;2023-07-30T02:20:18;4.50;;;4.20;;
14251;SDS011;7210;51.502;10.722;2023-07-30T02:22:46;5.50;;;4.30;;
14251;SDS011;7210;51.502;10.722;2023-07-30T02:25:13;4.87;;;4.30;;
14251;SDS011;7210;51.502;10.722;2023-07-30T02:27:40;4.50;;;4.20;;
14251;SDS011;7210;51.502;10.722;2023-07-30T02:30:10;4.33;;;4.03;;
14251;SDS011;7210;51.502;10.722;2023-07-30T02:32:37;4.90;;;4.13;;
14251;SDS011;7210;51.502;10.722;2023-07-30T02:35:05;7.23;;;4.10;;
14251;SDS011;7210;51.502;10.722;2023-07-30T02:37:32;4.80;;;3.90;;
14251;SDS011;7210;51.502;10.722;2023-07-30T02:40:00;4.40;;;4.07;;
14251;SDS011;7210;51.502;10.722;2023-07-30T02:42:30;4.30;;;3.90;;
14251;SDS011;7210;51.502;10.722;2023-07-30T02:44:57;4.13;;;3.73;;
14251;SDS011;7210;51.502;10.722;2023-07-30T02:47:26;5.07;;;3.67;;
14251;SDS011;7210;51.502;10.722;2023-07-30T02:49:53;4.53;;;3.70;;
14251;SDS011;7210;51.502;10.722;2023-07-30T02:52:20;4.20;;;3.80;;
14251;SDS011;7210;51.502;10.722;2023-07-30T02:54:48;4.67;;;4.00;;
14251;SDS011;7210;51.502;10.722;2023-07-30T02:57:15;3.77;;;3.43;;
14251;SDS011;7210;51.502;10.722;2023-07-30T02:59:42;4.50;;;4.10;;
14251;SDS011;7210;51.502;10.722;2023-07-30T03:02:09;4.57;;;4.17;;
14251;SDS011;7210;51.502;10.722;2023-07-30T03:04:38;5.13;;;4.30;;
14251;SDS011;7210;51.502;10.722;2023-07-30T03:07:05;4.20;;;3.80;;
14251;SDS011;7210;51.502;10.722;2023-07-30T03:09:34;4.93;;;4.43;;
14251;SDS011;7210;51.502;10.722;2023-07-30T03:12:02;4.63;;;4.17;;
14251;SDS011;7210;51.502;10.722;2023-07-30T03:14:30;4.47;;;4.10;;
14251;SDS011;7210;51.502;10.722;2023-07-30T03:16:57;4.93;;;4.53;;
14251;SDS011;7210;51.502;10.722;2023-07-30T03:19:25;4.50;;;4.20;;
14251;SDS011;7210;51.502;10.722;2023-07-30T03:21:53;5.13;;;4.00;;
14251;SDS011;7210;51.502;10.722;2023-07-30T03:24:20;4.53;;;4.13;;
14251;SDS011;7210;51.502;10.722;2023-07-30T03:26:48;6.33;;;4.33;;
14251;SDS011;7210;51.502;10.722;2023-07-30T03:29:15;4.90;;;4.30;;
14251;SDS011;7210;51.502;10.722;2023-07-30T03:31:42;4.97;;;4.13;;
14251;SDS011;7210;51.502;10.722;2023-07-30T03:34:10;4.57;;;4.13;;
14251;SDS011;7210;51.502;10.722;2023-07-30T03:36:37;4.53;;;3.87;;
14251;SDS011;7210;51.502;10.722;2023-07-30T03:39:06;4.07;;;3.77;;
14251;SDS011;7210;51.502;10.722;2023-07-30T03:41:33;4.20;;;3.70;;
14251;SDS011;7210;51.502;10.722;2023-07-30T03:44:03;3.90;;;3.60;;
14251;SDS011;7210;51.502;10.722;2023-07-30T03:46:39;4.17;;;3.80;;
14251;SDS011;7210;51.502;10.722;2023-07-30T03:49:07;4.20;;;3.73;;
14251;SDS011;7210;51.502;10.722;2023-07-30T03:51:34;4.03;;;3.73;;
14251;SDS011;7210;51.502;10.722;2023-07-30T03:54:04;5.60;;;3.50;;
14251;SDS011;7210;51.502;10.722;2023-07-30T03:56:32;7.97;;;3.80;;
14251;SDS011;7210;51.502;10.722;2023-07-30T03:59:00;4.33;;;3.57;;
14251;SDS011;7210;51.502;10.722;2023-07-30T04:01:27;3.53;;;3.23;;
14251;SDS011;7210;51.502;10.722;2023-07-30T04:03:56;3.87;;;3.57;;
14251;SDS011;7210;51.502;10.722;2023-07-30T04:06:28;3.83;;;3.53;;
14251;SDS011;7210;51.502;10.722;2023-07-30T04:08:56;3.50;;;3.30;;
14251;SDS011;7210;51.502;10.722;2023-07-30T04:11:24;4.20;;;3.80;;
14251;SDS011;7210;51.502;10.722;2023-07-30T04:13:53;4.40;;;4.00;;
14251;SDS011;7210;51.502;10.722;2023-07-30T04:16:20;4.87;;;3.60;;
14251;SDS011;7210;51.502;10.722;2023-07-30T04:19:04;4.10;;;3.80;;
14251;SDS011;7210;51.502;10.722;2023-07-30T04:21:32;4.13;;;3.80;;
14251;SDS011;7210;51.502;10.722;2023-07-30T04:24:00;4.60;;;4.10;;
14251;SDS011;7210;51.502;10.722;2023-07-30T04:26:28;4.60;;;3.70;;
14251;SDS011;7210;51.502;10.722;2023-07-30T04:28:57;4.40;;;3.87;;
14251;SDS011;7210;51.502;10.722;2023-07-30T04:31:28;7.23;;;3.83;;
14251;SDS011;7210;51.502;10.722;2023-07-30T04:33:57;4.73;;;3.97;;
14251;SDS011;7210;51.502;10.722;2023-07-30T04:36:25;4.90;;;4.00;;
14251;SDS011;7210;51.502;10.722;2023-07-30T04:38:53;3.67;;;3.37;;
14251;SDS011;7210;51.502;10.722;2023-07-30T04:41:27;5.07;;;4.37;;
14251;SDS011;7210;51.502;10.722;2023-07-30T04:43:57;5.33;;;3.83;;
14251;SDS011;7210;51.502;10.722;2023-07-30T04:46:27;6.90;;;3.90;;
14251;SDS011;7210;51.502;10.722;2023-07-30T04:49:01;5.00;;;4.50;;
14251;SDS011;7210;51.502;10.722;2023-07-30T04:51:30;4.10;;;3.67;;
14251;SDS011;7210;51.502;10.722;2023-07-30T04:53:58;5.63;;;4.10;;
14251;SDS011;7210;51.502;10.722;2023-07-30T04:56:26;5.13;;;4.17;;
14251;SDS011;7210;51.502;10.722;2023-07-30T04:59:00;4.87;;;3.77;;
14251;SDS011;7210;51.502;10.722;2023-07-30T05:01:28;3.77;;;3.47;;
14251;SDS011;7210;51.502;10.722;2023-07-30T05:03:56;4.20;;;3.80;;
14251;SDS011;7210;51.502;10.722;2023-07-30T05:06:24;4.43;;;4.03;;
14251;SDS011;7210;51.502;10.722;2023-07-30T05:08:52;4.03;;;3.63;;
14251;SDS011;7210;51.502;10.722;2023-07-30T05:14:14;5.20;;;4.40;;
14251;SDS011;7210;51.502;10.722;2023-07-30T05:16:41;4.77;;;4.00;;
14251;SDS011;7210;51.502;10.722;2023-07-30T05:19:08;5.17;;;3.53;;
14251;SDS011;7210;51.502;10.722;2023-07-30T05:21:36;3.67;;;3.37;;
14251;SDS011;7210;51.502;10.722;2023-07-30T05:24:03;4.33;;;4.03;;
14251;SDS011;7210;51.502;10.722;2023-07-30T05:26:31;5.40;;;4.30;;
14251;SDS011;7210;51.502;10.722;2023-07-30T05:28:58;5.10;;;4.50;;
14251;SDS011;7210;51.502;10.722;2023-07-30T05:31:27;7.00;;;3.87;;
14251;SDS011;7210;51.502;10.722;2023-07-30T05:33:55;5.90;;;4.00;;
14251;SDS011;7210;51.502;10.722;2023-07-30T05:36:22;4.60;;;4.20;;
14251;SDS011;7210;51.502;10.722;2023-07-30T05:38:52;4.23;;;3.33;;
14251;SDS011;7210;51.502;10.722;2023-07-30T05:41:20;3.37;;;3.13;;
14251;SDS011;7210;51.502;10.722;2023-07-30T05:43:47;4.40;;;4.03;;
14251;SDS011;7210;51.502;10.722;2023-07-30T05:46:16;4.27;;;3.97;;
14251;SDS011;7210;51.502;10.722;2023-07-30T05:48:45;6.10;;;5.47;;
14251;SDS011;7210;51.502;10.722;2023-07-30T05:51:12;6.73;;;5.97;;
14251;SDS011;7210;51.502;10.722;2023-07-30T05:53:40;6.10;;;5.50;;
14251;SDS011;7210;51.502;10.722;2023-07-30T05:56:08;7.10;;;6.50;;
14251;SDS011;7210;51.502;10.722;2023-07-30T05:58:39;6.53;;;5.73;;
14251;SDS011;7210;51.502;10.722;2023-07-30T06:01:06;7.60;;;5.63;;
14251;SDS011;7210;51.502;10.722;2023-07-30T06:03:34;9.47;;;6.53;;
14251;SDS011;7210;51.502;10.722;2023-07-30T06:06:02;7.50;;;6.70;;
14251;SDS011;7210;51.502;10.722;2023-07-30T06:08:30;7.97;;;6.20;;
14251;SDS011;7210;51.502;10.722;2023-07-30T06:10:59;7.87;;;6.80;;
14251;SDS011;7210;51.502;10.722;2023-07-30T06:13:28;6.43;;;5.73;;
14251;SDS011;7210;51.502;10.722;2023-07-30T06:15:55;8.83;;;5.30;;
14251;SDS011;7210;51.502;10.722;2023-07-30T06:18:23;6.20;;;5.40;;
14251;SDS011;7210;51.502;10.722;2023-07-30T06:20:50;6.97;;;5.30;;
14251;SDS011;7210;51.502;10.722;2023-07-30T06:23:19;5.07;;;4.07;;
14251;SDS011;7210;51.502;10.722;2023-07-30T06:25:46;5.47;;;3.80;;
14251;SDS011;7210;51.502;10.722;2023-07-30T06:28:13;5.47;;;3.47;;
14251;SDS011;7210;51.502;10.722;2023-07-30T06:30:41;4.63;;;3.20;;
14251;SDS011;7210;51.502;10.722;2023-07-30T06:33:08;7.10;;;3.70;;
14251;SDS011;7210;51.502;10.722;2023-07-30T06:35:36;4.53;;;2.80;;
14251;SDS011;7210;51.502;10.722;2023-07-30T06:38:03;6.60;;;2.57;;
14251;SDS011;7210;51.502;10.722;2023-07-30T06:40:34;4.37;;;2.70;;
14251;SDS011;7210;51.502;10.722;2023-07-30T06:43:01;7.10;;;2.90;;
14251;SDS011;7210;51.502;10.722;2023-07-30T06:45:28;7.87;;;3.13;;
14251;SDS011;7210;51.502;10.722;2023-07-30T06:47:55;5.60;;;3.40;;
14251;SDS011;7210;51.502;10.722;2023-07-30T06:50:23;4.50;;;3.10;;
14251;SDS011;7210;51.502;10.722;2023-07-30T06:52:50;5.77;;;2.73;;
14251;SDS011;7210;51.502;10.722;2023-07-30T06:55:17;8.60;;;3.00;;
14251;SDS011;7210;51.502;10.722;2023-07-30T06:57:46;6.77;;;3.30;;
14251;SDS011;7210;51.502;10.722;2023-07-30T07:00:14;4.63;;;3.07;;
14251;SDS011;7210;51.502;10.722;2023-07-30T07:02:46;5.57;;;3.20;;
14251;SDS011;7210;51.502;10.722;2023-07-30T07:05:16;5.17;;;3.30;;
14251;SDS011;7210;51.502;10.722;2023-07-30T07:07:45;3.80;;;2.60;;
14251;SDS011;7210;51.502;10.722;2023-07-30T07:10:12;4.93;;;2.90;;
14251;SDS011;7210;51.502;10.722;2023-07-30T07:12:40;4.57;;;2.97;;
14251;SDS011;7210;51.502;10.722;2023-07-30T07:15:12;5.00;;;3.07;;
14251;SDS011;7210;51.502;10.722;2023-07-30T07:17:40;2.53;;;2.33;;
14251;SDS011;7210;51.502;10.722;2023-07-30T07:20:07;4.13;;;3.03;;
14251;SDS011;7210;51.502;10.722;2023-07-30T07:22:40;2.73;;;2.40;;
14251;SDS011;7210;51.502;10.722;2023-07-30T07:25:08;5.07;;;2.53;;
14251;SDS011;7210;51.502;10.722;2023-07-30T07:27:35;4.40;;;2.37;;
14251;SDS011;7210;51.502;10.722;2023-07-30T07:30:03;6.83;;;2.53;;
14251;SDS011;7210;51.502;10.722;2023-07-30T07:32:33;2.90;;;2.23;;
14251;SDS011;7210;51.502;10.722;2023-07-30T07:35:03;3.63;;;2.20;;
14251;SDS011;7210;51.502;10.722;2023-07-30T07:37:32;3.70;;;2.60;;
14251;SDS011;7210;51.502;10.722;2023-07-30T07:39:59;5.27;;;2.30;;
14251;SDS011;7210;51.502;10.722;2023-07-30T07:42:28;3.03;;;2.13;;
14251;SDS011;7210;51.502;10.722;2023-07-30T07:44:55;5.27;;;2.10;;
14251;SDS011;7210;51.502;10.722;2023-07-30T07:47:23;4.93;;;2.23;;
14251;SDS011;7210;51.502;10.722;2023-07-30T07:49:51;3.20;;;2.50;;
14251;SDS011;7210;51.502;10.722;2023-07-30T07:52:19;3.13;;;2.10;;
14251;SDS011;7210;51.502;10.722;2023-07-30T07:54:46;2.87;;;2.30;;
14251;SDS011;7210;51.502;10.722;2023-07-30T07:57:14;3.93;;;2.20;;
14251;SDS011;7210;51.502;10.722;2023-07-30T07:59:42;3.77;;;2.00;;
14251;SDS011;7210;51.502;10.722;2023-07-30T08:02:11;2.93;;;1.83;;
14251;SDS011;7210;51.502;10.722;2023-07-30T08:04:39;2.47;;;1.87;;
14251;SDS011;7210;51.502;10.722;2023-07-30T08:07:08;4.73;;;2.00;;
14251;SDS011;7210;51.502;10.722;2023-07-30T08:09:41;3.50;;;1.70;;
14251;SDS011;7210;51.502;10.722;2023-07-30T08:12:08;3.00;;;1.83;;
14251;SDS011;7210;51.502;10.722;2023-07-30T08:14:37;3.90;;;2.00;;
14251;SDS011;7210;51.502;10.722;2023-07-30T08:17:08;3.27;;;2.10;;
14251;SDS011;7210;51.502;10.722;2023-07-30T08:19:37;2.80;;;1.97;;
14251;SDS011;7210;51.502;10.722;2023-07-30T08:22:05;4.10;;;2.10;;
14251;SDS011;7210;51.502;10.722;2023-07-30T08:24:33;3.93;;;2.00;;
14251;SDS011;7210;51.502;10.722;2023-07-30T08:27:01;2.90;;;1.70;;
14251;SDS011;7210;51.502;10.722;2023-07-30T08:29:29;2.37;;;1.70;;
14251;SDS011;7210;51.502;10.722;2023-07-30T08:31:56;2.53;;;1.80;;
14251;SDS011;7210;51.502;10.722;2023-07-30T08:34:23;3.10;;;2.07;;
14251;SDS011;7210;51.502;10.722;2023-07-30T08:36:51;2.60;;;1.60;;
14251;SDS011;7210;51.502;10.722;2023-07-30T08:39:20;3.50;;;1.80;;
14251;SDS011;7210;51.502;10.722;2023-07-30T08:41:58;4.77;;;2.80;;
14251;SDS011;7210;51.502;10.722;2023-07-30T08:44:26;2.40;;;2.20;;
14251;SDS011;7210;51.502;10.722;2023-07-30T08:46:54;2.37;;;1.73;;
14251;SDS011;7210;51.502;10.722;2023-07-30T08:49:22;2.97;;;1.93;;
14251;SDS011;7210;51.502;10.722;2023-07-30T08:51:52;2.20;;;2.00;;
14251;SDS011;7210;51.502;10.722;2023-07-30T08:54:21;2.60;;;2.00;;
14251;SDS011;7210;51.502;10.722;2023-07-30T08:56:51;3.33;;;1.90;;
14251;SDS011;7210;51.502;10.722;2023-07-30T08:59:20;2.20;;;2.00;;
14251;SDS011;7210;51.502;10.722;2023-07-30T09:01:51;3.10;;;1.80;;
14251;SDS011;7210;51.502;10.722;2023-07-30T09:04:20;2.73;;;1.80;;
14251;SDS011;7210;51.502;10.722;2023-07-30T09:06:48;3.50;;;1.80;;
14251;SDS011;7210;51.502;10.722;2023-07-30T09:09:16;2.47;;;2.20;;
14251;SDS011;7210;51.502;10.722;2023-07-30T09:11:43;3.13;;;2.03;;
14251;SDS011;7210;51.502;10.722;2023-07-30T09:14:20;2.60;;;1.83;;
14251;SDS011;7210;51.502;10.722;2023-07-30T09:16:48;2.97;;;1.87;;
14251;SDS011;7210;51.502;10.722;2023-07-30T09:19:23;2.83;;;2.60;;
14251;SDS011;7210;51.502;10.722;2023-07-30T09:21:50;3.87;;;2.63;;
14251;SDS011;7210;51.502;10.722;2023-07-30T09:24:20;3.37;;;1.80;;
14251;SDS011;7210;51.502;10.722;2023-07-30T09:26:48;3.30;;;2.20;;
14251;SDS011;7210;51.502;10.722;2023-07-30T09:29:15;3.63;;;1.93;;
14251;SDS011;7210;51.502;10.722;2023-07-30T09:31:44;3.67;;;2.00;;
14251;SDS011;7210;51.502;10.722;2023-07-30T09:34:17;2.90;;;1.90;;
14251;SDS011;7210;51.502;10.722;2023-07-30T09:36:45;2.03;;;1.80;;
14251;SDS011;7210;51.502;10.722;2023-07-30T09:39:16;4.30;;;3.00;;
14251;SDS011;7210;51.502;10.722;2023-07-30T09:41:53;3.20;;;1.97;;
14251;SDS011;7210;51.502;10.722;2023-07-30T09:44:27;3.77;;;2.53;;
14251;SDS011;7210;51.502;10.722;2023-07-30T09:46:56;3.97;;;2.63;;
14251;SDS011;7210;51.502;10.722;2023-07-30T09:49:23;4.37;;;2.77;;
14251;SDS011;7210;51.502;10.722;2023-07-30T09:51:51;2.77;;;2.13;;
14251;SDS011;7210;51.502;10.722;2023-07-30T09:54:19;3.10;;;2.10;;
14251;SDS011;7210;51.502;10.722;2023-07-30T09:56:47;4.23;;;2.47;;
14251;SDS011;7210;51.502;10.722;2023-07-30T09:59:15;2.50;;;2.30;;
14251;SDS011;7210;51.502;10.722;2023-07-30T10:01:43;2.95;;;2.10;;
14251;SDS011;7210;51.502;10.722;2023-07-30T10:04:18;3.80;;;2.50;;
14251;SDS011;7210;51.502;10.722;2023-07-30T10:06:55;3.07;;;2.83;;
14251;SDS011;7210;51.502;10.722;2023-07-30T10:09:34;3.63;;;2.77;;
14251;SDS011;7210;51.502;10.722;2023-07-30T10:12:11;3.10;;;2.50;;
14251;SDS011;7210;51.502;10.722;2023-07-30T10:14:42;2.90;;;2.60;;
14251;SDS011;7210;51.502;10.722;2023-07-30T10:17:11;2.90;;;2.60;;
14251;SDS011;7210;51.502;10.722;2023-07-30T10:19:40;4.37;;;2.70;;
14251;SDS011;7210;51.502;10.722;2023-07-30T10:22:19;2.93;;;2.73;;
14251;SDS011;7210;51.502;10.722;2023-07-30T10:24:56;4.00;;;3.37;;
14251;SDS011;7210;51.502;10.722;2023-07-30T10:27:27;4.80;;;3.33;;
14251;SDS011;7210;51.502;10.722;2023-07-30T10:30:10;4.00;;;3.10;;
14251;SDS011;7210;51.502;10.722;2023-07-30T10:32:39;3.47;;;2.83;;
14251;SDS011;7210;51.502;10.722;2023-07-30T10:35:10;4.83;;;3.30;;
14251;SDS011;7210;51.502;10.722;2023-07-30T10:38:12;4.03;;;3.20;;
14251;SDS011;7210;51.502;10.722;2023-07-30T10:43:34;5.43;;;3.20;;
14251;SDS011;7210;51.502;10.722;2023-07-30T10:46:03;3.83;;;3.40;;
14251;SDS011;7210;51.502;10.722;2023-07-30T10:48:31;4.43;;;3.50;;
14251;SDS011;7210;51.502;10.722;2023-07-30T10:51:02;4.33;;;3.60;;
14251;SDS011;7210;51.502;10.722;2023-07-30T10:53:32;4.43;;;3.27;;
14251;SDS011;7210;51.502;10.722;2023-07-30T10:56:01;5.00;;;3.83;;
14251;SDS011;7210;51.502;10.722;2023-07-30T10:58:30;4.60;;;4.20;;
14251;SDS011;7210;51.502;10.722;2023-07-30T11:01:01;10.23;;;6.20;;
14251;SDS011;7210;51.502;10.722;2023-07-30T11:03:30;11.10;;;7.00;;
14251;SDS011;7210;51.502;10.722;2023-07-30T11:05:58;12.03;;;7.33;;
14251;SDS011;7210;51.502;10.722;2023-07-30T11:08:34;11.50;;;7.30;;
14251;SDS011;7210;51.502;10.722;2023-07-30T11:11:03;9.90;;;8.43;;
14251;SDS011;7210;51.502;10.722;2023-07-30T11:13:34;12.40;;;8.70;;
14251;SDS011;7210;51.502;10.722;2023-07-30T11:16:04;9.37;;;8.43;;
14251;SDS011;7210;51.502;10.722;2023-07-30T11:18:32;9.20;;;8.30;;
14251;SDS011;7210;51.502;10.722;2023-07-30T11:21:05;8.90;;;8.10;;
14251;SDS011;7210;51.502;10.722;2023-07-30T11:23:35;9.50;;;8.60;;
14251;SDS011;7210;51.502;10.722;2023-07-30T11:26:06;9.80;;;8.73;;
14251;SDS011;7210;51.502;10.722;2023-07-30T11:28:39;10.30;;;9.17;;
14251;SDS011;7210;51.502;10.722;2023-07-30T11:31:07;10.70;;;9.80;;
14251;SDS011;7210;51.502;10.722;2023-07-30T11:33:37;9.50;;;8.70;;
14251;SDS011;7210;51.502;10.722;2023-07-30T11:36:08;9.93;;;9.07;;
14251;SDS011;7210;51.502;10.722;2023-07-30T11:38:44;10.17;;;9.17;;
14251;SDS011;7210;51.502;10.722;2023-07-30T11:41:15;10.57;;;9.67;;
14251;SDS011;7210;51.502;10.722;2023-07-30T11:43:43;10.27;;;9.27;;
14251;SDS011;7210;51.502;10.722;2023-07-30T11:46:17;10.37;;;9.20;;
14251;SDS011;7210;51.502;10.722;2023-07-30T11:48:47;11.17;;;10.17;;
14251;SDS011;7210;51.502;10.722;2023-07-30T11:51:20;10.63;;;9.63;;
14251;SDS011;7210;51.502;10.722;2023-07-30T11:53:54;9.57;;;8.57;;
14251;SDS011;7210;51.502;10.722;2023-07-30T11:56:24;9.30;;;8.40;;
14251;SDS011;7210;51.502;10.722;2023-07-30T11:58:54;9.20;;;8.40;;
14251;SDS011;7210;51.502;10.722;2023-07-30T12:01:24;11.10;;;9.00;;
14251;SDS011;7210;51.502;10.722;2023-07-30T12:03:54;9.63;;;7.70;;
14251;SDS011;7210;51.502;10.722;2023-07-30T12:06:22;8.47;;;7.40;;
14251;SDS011;7210;51.502;10.722;2023-07-30T12:08:49;10.93;;;7.63;;
14251;SDS011;7210;51.502;10.722;2023-07-30T12:11:19;7.43;;;6.73;;
14251;SDS011;7210;51.502;10.722;2023-07-30T12:13:46;6.07;;;5.50;;
14251;SDS011;7210;51.502;10.722;2023-07-30T12:16:15;6.10;;;5.50;;
14251;SDS011;7210;51.502;10.722;2023-07-30T12:18:42;4.57;;;4.13;;
14251;SDS011;7210;51.502;10.722;2023-07-30T12:21:10;4.30;;;3.90;;
14251;SDS011;7210;51.502;10.722;2023-07-30T12:23:39;4.07;;;3.77;;
14251;SDS011;7210;51.502;10.722;2023-07-30T12:26:06;4.10;;;3.80;;
14251;SDS011;7210;51.502;10.722;2023-07-30T12:28:35;6.43;;;4.70;;
14251;SDS011;7210;51.502;10.722;2023-07-30T12:31:03;4.93;;;4.10;;
14251;SDS011;7210;51.502;10.722;2023-07-30T12:33:30;4.10;;;3.30;;
14251;SDS011;7210;51.502;10.722;2023-07-30T12:35:58;4.23;;;3.83;;
14251;SDS011;7210;51.502;10.722;2023-07-30T12:38:25;5.00;;;3.70;;
14251;SDS011;7210;51.502;10.722;2023-07-30T12:40:53;4.10;;;3.80;;
14251;SDS011;7210;51.502;10.722;2023-07-30T12:43:21;3.87;;;3.57;;
14251;SDS011;7210;51.502;10.722;2023-07-30T12:45:50;4.27;;;3.63;;
14251;SDS011;7210;51.502;10.722;2023-07-30T12:48:18;4.17;;;3.80;;
14251;SDS011;7210;51.502;10.722;2023-07-30T12:50:47;4.77;;;3.93;;
14251;SDS011;7210;51.502;10.722;2023-07-30T12:53:14;3.77;;;3.47;;
14251;SDS011;7210;51.502;10.722;2023-07-30T12:55:41;3.63;;;3.30;;
14251;SDS011;7210;51.502;10.722;2023-07-30T12:58:11;2.70;;;2.50;;
14251;SDS011;7210;51.502;10.722;2023-07-30T13:00:38;3.00;;;2.63;;
14251;SDS011;7210;51.502;10.722;2023-07-30T13:03:07;3.50;;;2.80;;
14251;SDS011;7210;51.502;10.722;2023-07-30T13:05:34;2.77;;;2.57;;
14251;SDS011;7210;51.502;10.722;2023-07-30T13:08:01;3.17;;;2.67;;
14251;SDS011;7210;51.502;10.722;2023-07-30T13:10:29;3.00;;;2.70;;
14251;SDS011;7210;51.502;10.722;2023-07-30T13:12:56;2.90;;;2.57;;
14251;SDS011;7210;51.502;10.722;2023-07-30T13:15:23;3.20;;;2.90;;
14251;SDS011;7210;51.502;10.722;2023-07-30T13:17:51;3.60;;;3.00;;
14251;SDS011;7210;51.502;10.722;2023-07-30T13:20:20;3.17;;;2.93;;
14251;SDS011;7210;51.502;10.722;2023-07-30T13:22:49;3.37;;;3.13;;
14251;SDS011;7210;51.502;10.722;2023-07-30T13:25:23;4.40;;;3.40;;
14251;SDS011;7210;51.502;10.722;2023-07-30T13:27:50;3.53;;;3.23;;
14251;SDS011;7210;51.502;10.722;2023-07-30T13:30:17;3.80;;;3.40;;
14251;SDS011;7210;51.502;10.722;2023-07-30T13:32:45;3.70;;;3.40;;
14251;SDS011;7210;51.502;10.722;2023-07-30T13:35:12;3.50;;;3.20;;
14251;SDS011;7210;51.502;10.722;2023-07-30T13:37:41;4.70;;;2.80;;
14251;SDS011;7210;51.502;10.722;2023-07-30T13:40:09;3.20;;;3.00;;
14251;SDS011;7210;51.502;10.722;2023-07-30T13:42:37;3.87;;;3.47;;
14251;SDS011;7210;51.502;10.722;2023-07-30T13:45:05;4.83;;;3.23;;
14251;SDS011;7210;51.502;10.722;2023-07-30T13:47:35;3.57;;;3.27;;
14251;SDS011;7210;51.502;10.722;2023-07-30T13:50:02;4.13;;;2.70;;
14251;SDS011;7210;51.502;10.722;2023-07-30T13:52:30;3.23;;;2.87;;
14251;SDS011;7210;51.502;10.722;2023-07-30T13:54:59;3.50;;;3.20;;
14251;SDS011;7210;51.502;10.722;2023-07-30T13:57:26;3.60;;;2.80;;
14251;SDS011;7210;51.502;10.722;2023-07-30T13:59:54;4.13;;;2.60;;
14251;SDS011;7210;51.502;10.722;2023-07-30T14:02:23;5.10;;;2.87;;
14251;SDS011;7210;51.502;10.722;2023-07-30T14:04:53;4.07;;;2.50;;
14251;SDS011;7210;51.502;10.722;2023-07-30T14:07:20;4.57;;;2.90;;
14251;SDS011;7210;51.502;10.722;2023-07-30T14:09:48;4.07;;;2.70;;
14251;SDS011;7210;51.502;10.722;2023-07-30T14:12:18;2.93;;;2.50;;
14251;SDS011;7210;51.502;10.722;2023-07-30T14:14:45;4.10;;;2.70;;
14251;SDS011;7210;51.502;10.722;2023-07-30T14:17:13;4.33;;;2.73;;
14251;SDS011;7210;51.502;10.722;2023-07-30T14:19:40;3.30;;;2.33;;
14251;SDS011;7210;51.502;10.722;2023-07-30T14:22:07;3.07;;;2.40;;
14251;SDS011;7210;51.502;10.722;2023-07-30T14:24:34;3.43;;;2.60;;
14251;SDS011;7210;51.502;10.722;2023-07-30T14:27:03;4.37;;;2.57;;
14251;SDS011;7210;51.502;10.722;2023-07-30T14:29:32;5.63;;;3.67;;
14251;SDS011;7210;51.502;10.722;2023-07-30T14:31:59;3.43;;;2.50;;
14251;SDS011;7210;51.502;10.722;2023-07-30T14:34:27;4.13;;;2.20;;
14251;SDS011;7210;51.502;10.722;2023-07-30T14:36:54;4.33;;;2.60;;
14251;SDS011;7210;51.502;10.722;2023-07-30T14:39:21;3.70;;;2.37;;
14251;SDS011;7210;51.502;10.722;2023-07-30T14:41:48;3.87;;;2.20;;
14251;SDS011;7210;51.502;10.722;2023-07-30T14:44:16;4.17;;;2.37;;
14251;SDS011;7210;51.502;10.722;2023-07-30T14:46:45;3.33;;;2.40;;
14251;SDS011;7210;51.502;10.722;2023-07-30T14:49:13;4.57;;;2.30;;
14251;SDS011;7210;51.502;10.722;2023-07-30T14:51:41;6.00;;;2.40;;
14251;SDS011;7210;51.502;10.722;2023-07-30T14:54:08;5.63;;;2.40;;
14251;SDS011;7210;51.502;10.722;2023-07-30T14:56:41;4.60;;;2.23;;
14251;SDS011;7210;51.502;10.722;2023-07-30T14:59:09;4.87;;;2.10;;
14251;SDS011;7210;51.502;10.722;2023-07-30T15:01:36;6.33;;;2.53;;
14251;SDS011;7210;51.502;10.722;2023-07-30T15:04:05;4.03;;;2.40;;